This is the latest recevied weather packets stored in our database for station/object EA3KZ-1. If no packets are shown the sender has not sent any weather packets the latest 10 day(s).
| Time | Temp. | Humidity | Pressure | Rain* | Wind** | Luminosity | Snow |
|---|---|---|---|---|---|---|---|
| 1787827534 | 30.56° C | 59% | 1008.8 hPa | 0 mm | - | - | - |
| 1787826932 | 30.56° C | 60% | 1008.9 hPa | 0 mm | - | - | - |
| 1787826329 | 30.56° C | 59% | 1009 hPa | 0 mm | - | - | - |
| 1787825727 | 30.56° C | 61% | 1009.1 hPa | 0 mm | - | - | - |
| 1787825124 | 28.89° C | 64% | 1009.3 hPa | 0 mm | - | - | - |
| 1787824521 | 28.89° C | 65% | 1009.2 hPa | 0 mm | - | - | - |
| 1787823919 | 28.33° C | 67% | 1009.2 hPa | 0 mm | - | - | - |
| 1787823316 | 28.33° C | 70% | 1009.4 hPa | 0 mm | - | - | - |
| 1787822774 | 27.22° C | 74% | 1009.4 hPa | 0 mm | - | - | - |
| 1787822171 | 27.22° C | 76% | 1009.4 hPa | 0 mm | - | - | - |
| 1787821568 | 26.67° C | 77% | 1009.6 hPa | 0 mm | - | - | - |
| 1787820966 | 27.22° C | 76% | 1009.5 hPa | 0 mm | - | - | - |
| 1787820363 | 26.11° C | 79% | 1009.2 hPa | 0 mm | - | - | - |
| 1787819761 | 26.67° C | 78% | 1009.1 hPa | 0 mm | - | - | - |
| 1787819158 | 26.11° C | 80% | 1008.9 hPa | 0 mm | - | - | - |
| 1787818556 | 26.11° C | 81% | 1008.9 hPa | 0 mm | - | - | - |
| 1787817953 | 25.56° C | 82% | 1008.8 hPa | 0 mm | - | - | - |
| 1787817350 | 25.56° C | 83% | 1008.8 hPa | 0 mm | - | - | - |
| 1787816748 | 26.11° C | 82% | 1008.6 hPa | 0 mm | - | - | - |
| 1787816145 | 26.11° C | 81% | 1008.6 hPa | 0 mm | - | - | - |
| 1787815543 | 25° C | 84% | 1008.4 hPa | 0 mm | - | - | - |
| 1787814940 | 25.56° C | 82% | 1008.3 hPa | 0 mm | - | - | - |
| 1787814337 | 26.11° C | 82% | 1008.3 hPa | 0 mm | - | - | - |
| 1787813735 | 26.11° C | 80% | 1008.1 hPa | 0 mm | - | - | - |
| 1787813132 | 25.56° C | 82% | 1007.8 hPa | 0 mm | - | - | - |
* Rain latest hour (hover to see other rain measurements)
** Current wind speed in m/s (hover to see current wind gust speed)